Fort Steele, Wyoming
Current Conditions -  °F | °C
As of 3:53 PM on Monday 22 Dec 2014 (Local Time) from KRWL Reporting Station
Few Clouds Few Clouds  
Wind Chill: 16°   Ceiling: Unl
Heat Index: 26°   Visibility: 10mi
Dew Point: 19°   Wind: 10mph
Humidity: 75%   Direction: 320°NW
Pressure: 29.79"   Gusts: NA
Location:  41.7532°N, 107.372°W
Report Text: KRWL 222253Z AUTO 32009KT 10SM FEW042 FEW049 M03/M07 A2979 RMK AO2 SLP118 T10331072
Loading
Personal Weather Stations






























Interactive Weather Map New forecast layout! Learn more

10-Day Weather Forecast

Advertisements
Track Severe Weather on mobile